createdAt,value
2022-10-26T00:00:50.208Z,14.80
2022-10-26T00:03:58.216Z,16.70
2022-10-26T00:07:03.664Z,23.80
2022-10-26T00:10:11.197Z,20.20
2022-10-26T00:13:16.709Z,22.50
2022-10-26T00:16:24.567Z,18.20
2022-10-26T00:19:30.367Z,21.30
2022-10-26T00:22:35.918Z,18.00
2022-10-26T00:25:41.567Z,19.40
2022-10-26T00:28:47.060Z,17.90
2022-10-26T00:31:52.668Z,19.70
2022-10-26T00:35:06.083Z,18.50
2022-10-26T00:38:21.583Z,16.70
2022-10-26T00:41:30.249Z,16.10
2022-10-26T00:45:01.808Z,14.90
2022-10-26T00:48:12.945Z,20.60
2022-10-26T00:51:25.597Z,17.20
2022-10-26T00:54:31.315Z,13.40
2022-10-26T00:57:39.049Z,18.00
2022-10-26T01:00:45.302Z,12.20
2022-10-26T01:06:56.344Z,12.90
2022-10-26T01:10:02.674Z,11.40
2022-10-26T01:13:08.864Z,17.00
2022-10-26T01:19:59.744Z,14.50
2022-10-26T01:23:14.713Z,13.90
2022-10-26T01:27:02.964Z,13.40
2022-10-26T01:30:28.278Z,13.30
2022-10-26T01:33:44.373Z,13.80
2022-10-26T01:36:56.082Z,12.80
2022-10-26T01:40:10.577Z,15.10
2022-10-26T01:43:18.089Z,14.90
2022-10-26T01:46:25.519Z,13.50
2022-10-26T01:49:34.297Z,13.80
2022-10-26T01:52:40.711Z,11.70
2022-10-26T01:55:50.329Z,15.00
2022-10-26T01:59:27.815Z,14.70
2022-10-26T02:02:48.486Z,12.60
2022-10-26T02:06:08.038Z,14.50
2022-10-26T02:09:24.773Z,13.00
2022-10-26T02:12:37.014Z,16.80
2022-10-26T02:15:49.922Z,12.50
2022-10-26T02:19:03.105Z,14.80
2022-10-26T02:22:15.049Z,16.10
2022-10-26T02:25:24.957Z,16.80
2022-10-26T02:28:36.493Z,14.50
2022-10-26T02:31:45.067Z,11.00
2022-10-26T02:34:52.880Z,11.20
2022-10-26T02:38:01.334Z,10.30
2022-10-26T02:41:09.029Z,10.00
2022-10-26T02:44:21.513Z,12.90
2022-10-26T02:47:28.069Z,10.00
2022-10-26T02:50:39.400Z,10.20
2022-10-26T02:53:51.255Z,14.20
2022-10-26T02:57:00.637Z,14.10
2022-10-26T03:00:08.170Z,13.50
2022-10-26T03:03:14.762Z,13.40
2022-10-26T03:06:25.149Z,14.00
2022-10-26T03:09:30.982Z,12.60
2022-10-26T03:12:36.529Z,14.90
2022-10-26T03:15:42.715Z,18.50
2022-10-26T03:18:48.141Z,19.70
2022-10-26T03:21:53.588Z,18.60
2022-10-26T03:24:59.103Z,17.10
2022-10-26T03:28:05.989Z,13.20
2022-10-26T03:31:11.568Z,13.50
2022-10-26T03:34:17.016Z,11.70
2022-10-26T03:37:22.461Z,13.40
2022-10-26T03:40:28.010Z,9.60
2022-10-26T03:43:33.430Z,11.20
2022-10-26T03:46:38.904Z,9.20
2022-10-26T03:49:44.354Z,9.70
2022-10-26T03:52:51.365Z,11.40
2022-10-26T03:55:57.091Z,10.20
2022-10-26T03:59:02.947Z,11.50
2022-10-26T04:02:08.396Z,11.20
2022-10-26T04:05:14.395Z,11.10
2022-10-26T04:08:20.037Z,12.70
2022-10-26T04:11:25.554Z,10.00
2022-10-26T04:14:31.104Z,11.70
2022-10-26T04:17:36.653Z,13.30
2022-10-26T04:20:42.940Z,12.50
2022-10-26T04:26:52.379Z,12.50
2022-10-26T04:29:57.929Z,12.20
2022-10-26T04:33:03.409Z,14.30
2022-10-26T04:36:10.720Z,10.80
2022-10-26T04:39:16.527Z,14.10
2022-10-26T04:42:22.073Z,13.10
2022-10-26T04:45:31.125Z,12.50
2022-10-26T04:48:36.858Z,11.60
2022-10-26T04:51:42.307Z,8.40
2022-10-26T04:54:48.059Z,11.30
2022-10-26T04:57:55.984Z,10.20
2022-10-26T05:01:05.395Z,14.10
2022-10-26T05:04:11.059Z,14.30
2022-10-26T05:07:16.606Z,13.00
2022-10-26T05:10:22.158Z,11.20
2022-10-26T05:16:38.272Z,11.60
2022-10-26T05:19:43.720Z,13.40
2022-10-26T05:22:55.006Z,16.40
2022-10-26T05:26:00.478Z,11.60
2022-10-26T05:29:05.972Z,15.40
2022-10-26T05:32:11.446Z,12.20
2022-10-26T05:35:17.329Z,13.10
2022-10-26T05:38:22.991Z,10.80
2022-10-26T05:41:28.738Z,13.70
2022-10-26T05:44:34.156Z,11.30
2022-10-26T05:47:42.316Z,10.20
2022-10-26T05:50:48.191Z,11.70
2022-10-26T05:53:55.619Z,12.30
2022-10-26T05:57:02.293Z,12.70
2022-10-26T06:00:11.597Z,11.40
2022-10-26T06:03:32.651Z,11.70
2022-10-26T06:06:45.259Z,12.40
2022-10-26T06:09:52.345Z,13.80
2022-10-26T06:12:58.941Z,13.10
2022-10-26T06:16:29.351Z,12.60
2022-10-26T06:19:48.418Z,11.90
2022-10-26T06:23:06.356Z,11.10
2022-10-26T06:26:19.226Z,10.90
2022-10-26T06:29:37.850Z,11.40
2022-10-26T06:32:45.541Z,13.50
2022-10-26T06:36:03.382Z,12.30
2022-10-26T06:39:12.128Z,10.90
2022-10-26T06:42:18.942Z,13.10
2022-10-26T06:45:25.805Z,10.90
2022-10-26T06:48:36.254Z,11.60
2022-10-26T06:51:48.269Z,12.10
2022-10-26T06:54:55.800Z,12.80
2022-10-26T06:58:02.946Z,11.50
2022-10-26T07:01:11.906Z,13.20
2022-10-26T07:04:17.482Z,16.90
2022-10-26T07:07:24.923Z,16.50
2022-10-26T07:10:30.431Z,16.10
2022-10-26T07:13:35.974Z,19.50
2022-10-26T07:16:41.523Z,18.60
2022-10-26T07:19:46.956Z,19.40
2022-10-26T07:22:56.760Z,19.60
2022-10-26T07:26:03.521Z,20.10
2022-10-26T07:29:09.148Z,22.90
2022-10-26T07:32:14.589Z,19.90
2022-10-26T07:35:20.146Z,24.10
2022-10-26T07:38:26.004Z,20.30
2022-10-26T07:41:31.477Z,22.50
2022-10-26T07:44:36.999Z,19.20
2022-10-26T07:47:42.547Z,18.50
2022-10-26T07:50:48.009Z,16.00
2022-10-26T07:53:53.408Z,15.80
2022-10-26T07:56:59.626Z,15.90
2022-10-26T08:03:10.602Z,13.50
2022-10-26T08:06:16.561Z,15.80
2022-10-26T08:09:22.008Z,16.20
2022-10-26T08:12:27.659Z,15.00
2022-10-26T08:15:33.107Z,14.30
2022-10-26T08:18:38.560Z,13.30
2022-10-26T08:21:44.000Z,14.00
2022-10-26T08:24:49.550Z,16.10
2022-10-26T08:27:55.613Z,13.40
2022-10-26T08:31:02.393Z,13.30
2022-10-26T08:34:07.939Z,14.40
2022-10-26T08:37:13.383Z,13.00
2022-10-26T08:40:21.021Z,11.40
2022-10-26T08:43:34.783Z,9.70
2022-10-26T08:46:45.739Z,9.60
2022-10-26T08:49:59.592Z,11.60
2022-10-26T08:53:14.368Z,9.60
2022-10-26T08:56:23.065Z,9.50
2022-10-26T08:59:36.694Z,9.60
2022-10-26T09:02:42.327Z,9.90
2022-10-26T09:06:06.410Z,8.70
2022-10-26T09:09:19.028Z,9.80
2022-10-26T09:12:35.224Z,8.90
2022-10-26T09:15:58.284Z,9.90
2022-10-26T09:19:32.814Z,8.50
2022-10-26T09:22:48.823Z,11.20
2022-10-26T09:26:01.627Z,10.30
2022-10-26T09:29:12.297Z,8.20
2022-10-26T09:32:20.907Z,9.80
2022-10-26T09:38:41.335Z,11.30
2022-10-26T09:41:51.318Z,9.90
2022-10-26T09:44:59.909Z,8.70
2022-10-26T09:48:13.397Z,9.70
2022-10-26T09:51:19.815Z,9.00
2022-10-26T09:54:25.577Z,8.00
2022-10-26T09:57:31.669Z,6.10
2022-10-26T10:00:38.922Z,9.00
2022-10-26T10:03:44.396Z,9.50
2022-10-26T10:06:51.658Z,7.30
2022-10-26T10:10:16.458Z,9.60
2022-10-26T10:13:25.434Z,9.10
2022-10-26T10:16:30.937Z,9.00
2022-10-26T10:19:38.478Z,8.00
2022-10-26T10:22:57.832Z,8.30
2022-10-26T10:26:06.212Z,9.90
2022-10-26T10:29:18.531Z,9.00
2022-10-26T10:32:25.874Z,6.90
2022-10-26T10:35:33.191Z,10.90
2022-10-26T10:38:44.750Z,8.40
2022-10-26T10:41:50.281Z,7.90
2022-10-26T10:44:59.197Z,9.20
2022-10-26T10:48:14.812Z,8.70
2022-10-26T10:51:25.162Z,7.00
2022-10-26T10:54:34.286Z,7.90
2022-10-26T10:57:50.870Z,11.90
2022-10-26T11:00:57.461Z,10.70
2022-10-26T11:04:34.177Z,7.80
2022-10-26T11:07:45.917Z,8.00
2022-10-26T11:10:55.703Z,14.10
2022-10-26T11:14:07.460Z,8.20
2022-10-26T11:17:19.769Z,7.30
2022-10-26T11:20:30.439Z,7.50
2022-10-26T11:23:43.189Z,14.20
2022-10-26T11:26:54.002Z,10.10
2022-10-26T11:30:06.986Z,8.80
2022-10-26T11:33:18.132Z,7.70
2022-10-26T11:36:30.379Z,7.90
2022-10-26T11:39:43.568Z,6.50
2022-10-26T11:42:56.816Z,8.70
2022-10-26T11:46:08.333Z,8.70
2022-10-26T11:49:20.697Z,7.60
2022-10-26T11:52:30.956Z,8.40
2022-10-26T11:55:36.812Z,2.80
2022-10-26T11:58:44.060Z,5.90
2022-10-26T12:01:52.209Z,9.20
2022-10-26T12:05:03.708Z,5.70
2022-10-26T12:08:15.807Z,3.70
2022-10-26T12:11:36.257Z,5.40
2022-10-26T12:14:47.537Z,6.30
2022-10-26T12:18:02.149Z,8.00
2022-10-26T12:21:09.789Z,4.70
2022-10-26T12:24:35.500Z,4.60
2022-10-26T12:27:58.475Z,2.90
2022-10-26T12:31:34.797Z,4.10
2022-10-26T12:35:05.642Z,10.00
2022-10-26T12:38:56.657Z,7.70
2022-10-26T12:42:30.369Z,6.00
2022-10-26T12:45:35.984Z,7.00
2022-10-26T12:48:44.603Z,5.80
2022-10-26T12:51:51.448Z,7.40
2022-10-26T12:55:31.822Z,6.80
2022-10-26T12:59:14.737Z,5.60
2022-10-26T13:02:41.661Z,6.20
2022-10-26T13:06:19.568Z,6.40
2022-10-26T13:09:28.834Z,5.90
2022-10-26T13:12:48.493Z,9.30
2022-10-26T13:15:58.357Z,6.60
2022-10-26T13:19:04.201Z,6.10
2022-10-26T13:22:17.276Z,5.80
2022-10-26T13:25:26.365Z,5.00
2022-10-26T13:28:45.315Z,6.00
2022-10-26T13:31:57.799Z,4.80
2022-10-26T13:35:05.322Z,6.60
2022-10-26T13:38:12.925Z,6.40
2022-10-26T13:41:34.065Z,5.20
2022-10-26T13:44:45.836Z,5.00
2022-10-26T13:47:57.345Z,6.50
2022-10-26T13:51:07.522Z,6.40
2022-10-26T13:54:22.709Z,9.60
2022-10-26T13:57:35.165Z,7.80
2022-10-26T14:00:40.949Z,4.20
2022-10-26T14:06:52.783Z,7.10
2022-10-26T14:09:59.796Z,7.60
2022-10-26T14:13:10.284Z,9.80
2022-10-26T14:16:20.489Z,11.60
2022-10-26T14:19:30.805Z,12.20
2022-10-26T14:22:36.354Z,11.70
2022-10-26T14:25:42.357Z,10.00
2022-10-26T14:28:55.877Z,11.70
2022-10-26T14:32:01.400Z,11.60
2022-10-26T14:35:12.304Z,10.90
2022-10-26T14:38:23.149Z,9.50
2022-10-26T14:41:30.216Z,10.10
2022-10-26T14:44:39.489Z,7.80
2022-10-26T14:47:49.772Z,9.60
2022-10-26T14:51:02.882Z,8.80
2022-10-26T14:54:22.871Z,11.30
2022-10-26T14:57:37.074Z,9.40
2022-10-26T15:00:43.441Z,11.30
2022-10-26T15:03:53.660Z,12.40
2022-10-26T15:07:10.813Z,11.10
2022-10-26T15:10:48.678Z,21.40
2022-10-26T15:13:54.973Z,10.70
2022-10-26T15:17:01.437Z,30.80
2022-10-26T15:20:15.514Z,19.40
2022-10-26T15:23:22.268Z,14.90
2022-10-26T15:26:28.286Z,7.20
2022-10-26T15:32:45.627Z,15.10
2022-10-26T15:35:51.326Z,20.40
2022-10-26T15:38:57.272Z,34.60
2022-10-26T15:42:02.788Z,13.60
2022-10-26T15:45:18.262Z,12.50
2022-10-26T15:48:29.086Z,13.40
2022-10-26T15:51:35.614Z,12.10
2022-10-26T15:54:41.167Z,9.30
2022-10-26T15:57:47.200Z,11.00
2022-10-26T16:00:53.263Z,12.50
2022-10-26T16:03:58.933Z,9.90
2022-10-26T16:07:05.969Z,15.40
2022-10-26T16:10:23.250Z,17.30
2022-10-26T16:13:28.798Z,20.60
2022-10-26T16:16:34.351Z,18.40
2022-10-26T16:19:39.899Z,18.30
2022-10-26T16:22:48.501Z,11.70
2022-10-26T16:25:53.966Z,14.90
2022-10-26T16:28:59.408Z,13.10
2022-10-26T16:32:04.962Z,15.50
2022-10-26T16:35:12.362Z,16.20
2022-10-26T16:38:17.904Z,18.90
2022-10-26T16:44:33.687Z,16.40
2022-10-26T16:47:40.246Z,16.10
2022-10-26T16:50:45.735Z,16.00
2022-10-26T16:53:52.964Z,25.70
2022-10-26T16:56:58.575Z,19.90
2022-10-26T17:00:04.330Z,28.70
2022-10-26T17:03:09.736Z,25.30
2022-10-26T17:06:15.736Z,36.50
2022-10-26T17:09:21.125Z,62.00
2022-10-26T17:15:36.992Z,104.80
2022-10-26T17:18:43.681Z,93.10
2022-10-26T17:21:49.118Z,95.10
2022-10-26T17:24:54.668Z,44.40
2022-10-26T17:28:00.318Z,27.30
2022-10-26T17:31:07.868Z,24.70
2022-10-26T17:34:13.309Z,23.70
2022-10-26T17:37:18.899Z,22.10
2022-10-26T17:40:24.465Z,20.30
2022-10-26T17:43:32.517Z,25.50
2022-10-26T17:46:37.941Z,43.50
2022-10-26T17:49:43.369Z,33.70
2022-10-26T17:52:48.921Z,31.70
2022-10-26T17:56:02.989Z,23.90
2022-10-26T17:59:12.649Z,26.30
2022-10-26T18:02:18.242Z,22.00
2022-10-26T18:05:23.854Z,22.10
2022-10-26T18:08:33.044Z,24.50
2022-10-26T18:11:38.798Z,21.50
2022-10-26T18:14:44.347Z,27.10
2022-10-26T18:17:56.732Z,27.30
2022-10-26T18:21:06.859Z,23.30
2022-10-26T18:24:12.570Z,24.50
2022-10-26T18:27:20.294Z,20.60
2022-10-26T18:30:26.900Z,20.90
2022-10-26T18:33:32.949Z,24.20
2022-10-26T18:36:39.068Z,19.80
2022-10-26T18:42:48.527Z,20.60
2022-10-26T18:45:54.281Z,20.70
2022-10-26T18:49:01.342Z,19.60
2022-10-26T18:52:10.262Z,21.70
2022-10-26T18:55:15.751Z,33.20
2022-10-26T18:58:21.204Z,35.10
2022-10-26T19:01:28.598Z,40.10
2022-10-26T19:04:34.338Z,29.90
2022-10-26T19:07:40.137Z,26.20
2022-10-26T19:10:45.648Z,22.30
2022-10-26T19:13:52.896Z,23.20
2022-10-26T19:16:58.378Z,23.00
2022-10-26T19:20:03.970Z,19.60
2022-10-26T19:23:09.887Z,20.40
2022-10-26T19:26:17.486Z,24.20
2022-10-26T19:29:24.733Z,22.70
2022-10-26T19:32:30.940Z,22.70
2022-10-26T19:38:42.094Z,23.00
2022-10-26T19:44:52.113Z,26.50
2022-10-26T19:47:58.379Z,19.70
2022-10-26T19:54:08.046Z,20.70
2022-10-26T19:57:13.588Z,19.30
2022-10-26T20:00:20.085Z,23.20
2022-10-26T20:03:26.658Z,21.50
2022-10-26T20:06:32.295Z,21.30
2022-10-26T20:09:37.738Z,23.60
2022-10-26T20:12:43.184Z,25.00
2022-10-26T20:15:49.909Z,25.00
2022-10-26T20:18:55.410Z,24.70
2022-10-26T20:22:00.945Z,22.80
2022-10-26T20:25:07.604Z,24.50
2022-10-26T20:28:13.761Z,23.50
2022-10-26T20:34:23.115Z,25.50
2022-10-26T20:37:29.830Z,24.00
2022-10-26T20:40:36.950Z,23.60
2022-10-26T20:43:43.858Z,26.10
2022-10-26T20:46:51.256Z,51.20
2022-10-26T20:49:57.768Z,28.30
2022-10-26T20:53:12.005Z,23.90
2022-10-26T20:56:23.820Z,22.80
2022-10-26T20:59:36.539Z,22.60
2022-10-26T21:02:41.980Z,25.00
2022-10-26T21:05:48.951Z,24.20
2022-10-26T21:08:55.757Z,21.60
2022-10-26T21:12:01.225Z,19.80
2022-10-26T21:15:08.481Z,19.90
2022-10-26T21:18:13.920Z,20.10
2022-10-26T21:21:19.374Z,17.40
2022-10-26T21:24:24.886Z,20.60
2022-10-26T21:27:30.508Z,19.10
2022-10-26T21:30:36.227Z,17.70
2022-10-26T21:33:42.321Z,21.60
2022-10-26T21:36:47.839Z,17.90
2022-10-26T21:39:53.285Z,20.90
2022-10-26T21:42:58.832Z,18.20
2022-10-26T21:46:04.699Z,20.20
2022-10-26T21:49:10.137Z,19.50
2022-10-26T21:52:15.688Z,20.50
2022-10-26T21:55:21.236Z,18.20
2022-10-26T21:58:26.683Z,20.80
2022-10-26T22:01:32.305Z,19.90
2022-10-26T22:04:38.806Z,17.50
2022-10-26T22:07:44.388Z,21.70
2022-10-26T22:10:49.767Z,22.50
2022-10-26T22:13:55.715Z,23.70
2022-10-26T22:17:01.110Z,22.50
2022-10-26T22:20:08.152Z,22.70
2022-10-26T22:23:13.642Z,22.60
2022-10-26T22:26:21.240Z,18.60
2022-10-26T22:29:26.654Z,18.80
2022-10-26T22:32:32.132Z,21.50
2022-10-26T22:35:37.679Z,19.30
2022-10-26T22:38:43.810Z,20.70
2022-10-26T22:41:50.519Z,20.70
2022-10-26T22:44:55.953Z,19.50
2022-10-26T22:48:01.567Z,18.90
2022-10-26T22:51:12.111Z,19.30
2022-10-26T22:54:17.866Z,18.80
2022-10-26T22:57:23.387Z,20.60
2022-10-26T23:00:28.806Z,20.70
2022-10-26T23:03:34.382Z,21.30
2022-10-26T23:06:40.036Z,19.70
2022-10-26T23:09:45.586Z,20.80
2022-10-26T23:12:54.179Z,19.80
2022-10-26T23:16:07.869Z,25.10
2022-10-26T23:19:13.789Z,25.20
2022-10-26T23:22:19.210Z,27.40
2022-10-26T23:25:24.698Z,29.50
2022-10-26T23:28:30.350Z,27.10
2022-10-26T23:31:35.736Z,28.90
2022-10-26T23:34:41.146Z,30.00
2022-10-26T23:37:46.662Z,31.70
2022-10-26T23:40:53.848Z,30.10
2022-10-26T23:43:59.429Z,28.90
2022-10-26T23:47:04.839Z,34.10
2022-10-26T23:50:11.275Z,32.20
2022-10-26T23:53:19.354Z,29.80
2022-10-26T23:56:24.811Z,28.60
2022-10-26T23:59:30.302Z,27.30
